sensor_id;sensor_type;location;lat;lon;timestamp;P1;durP1;ratioP1;P2;durP2;ratioP2
25073;SDS011;13066;52.042;5.648;2024-02-04T00:01:43;6.22;;;3.92;;
25073;SDS011;13066;52.042;5.648;2024-02-04T00:04:11;7.72;;;4.53;;
25073;SDS011;13066;52.042;5.648;2024-02-04T00:06:39;6.18;;;4.93;;
25073;SDS011;13066;52.042;5.648;2024-02-04T00:09:09;7.25;;;4.88;;
25073;SDS011;13066;52.042;5.648;2024-02-04T00:11:37;9.80;;;5.45;;
25073;SDS011;13066;52.042;5.648;2024-02-04T00:14:05;10.98;;;5.95;;
25073;SDS011;13066;52.042;5.648;2024-02-04T00:16:34;11.02;;;6.45;;
25073;SDS011;13066;52.042;5.648;2024-02-04T00:19:02;10.70;;;6.93;;
25073;SDS011;13066;52.042;5.648;2024-02-04T00:21:30;10.85;;;6.72;;
25073;SDS011;13066;52.042;5.648;2024-02-04T00:23:58;9.43;;;6.22;;
25073;SDS011;13066;52.042;5.648;2024-02-04T00:26:28;8.45;;;6.13;;
25073;SDS011;13066;52.042;5.648;2024-02-04T00:28:55;12.38;;;7.30;;
25073;SDS011;13066;52.042;5.648;2024-02-04T00:31:23;10.55;;;7.57;;
25073;SDS011;13066;52.042;5.648;2024-02-04T00:33:52;10.50;;;7.40;;
25073;SDS011;13066;52.042;5.648;2024-02-04T00:36:20;12.10;;;8.38;;
25073;SDS011;13066;52.042;5.648;2024-02-04T00:38:48;15.43;;;8.70;;
25073;SDS011;13066;52.042;5.648;2024-02-04T00:41:16;13.27;;;9.05;;
25073;SDS011;13066;52.042;5.648;2024-02-04T00:43:46;14.90;;;9.85;;
25073;SDS011;13066;52.042;5.648;2024-02-04T00:46:14;16.95;;;9.80;;
25073;SDS011;13066;52.042;5.648;2024-02-04T00:48:42;18.45;;;11.80;;
25073;SDS011;13066;52.042;5.648;2024-02-04T00:51:10;21.05;;;10.90;;
25073;SDS011;13066;52.042;5.648;2024-02-04T00:53:39;17.92;;;11.35;;
25073;SDS011;13066;52.042;5.648;2024-02-04T00:56:07;23.52;;;11.63;;
25073;SDS011;13066;52.042;5.648;2024-02-04T00:58:37;22.30;;;10.95;;
25073;SDS011;13066;52.042;5.648;2024-02-04T01:01:07;18.92;;;10.48;;
25073;SDS011;13066;52.042;5.648;2024-02-04T01:03:36;16.90;;;10.60;;
25073;SDS011;13066;52.042;5.648;2024-02-04T01:06:04;17.70;;;10.02;;
25073;SDS011;13066;52.042;5.648;2024-02-04T01:08:32;16.85;;;10.13;;
25073;SDS011;13066;52.042;5.648;2024-02-04T01:11:01;16.08;;;10.25;;
25073;SDS011;13066;52.042;5.648;2024-02-04T01:13:30;17.80;;;10.18;;
25073;SDS011;13066;52.042;5.648;2024-02-04T01:15:58;18.02;;;10.25;;
25073;SDS011;13066;52.042;5.648;2024-02-04T01:18:28;20.50;;;10.25;;
25073;SDS011;13066;52.042;5.648;2024-02-04T01:20:58;14.82;;;9.00;;
25073;SDS011;13066;52.042;5.648;2024-02-04T01:23:27;19.17;;;10.63;;
25073;SDS011;13066;52.042;5.648;2024-02-04T01:25:55;17.15;;;9.63;;
25073;SDS011;13066;52.042;5.648;2024-02-04T01:28:23;14.88;;;9.50;;
25073;SDS011;13066;52.042;5.648;2024-02-04T01:30:51;15.05;;;9.50;;
25073;SDS011;13066;52.042;5.648;2024-02-04T01:33:19;17.45;;;9.60;;
25073;SDS011;13066;52.042;5.648;2024-02-04T01:35:49;16.00;;;9.18;;
25073;SDS011;13066;52.042;5.648;2024-02-04T01:38:19;17.58;;;9.63;;
25073;SDS011;13066;52.042;5.648;2024-02-04T01:40:46;15.30;;;9.20;;
25073;SDS011;13066;52.042;5.648;2024-02-04T01:43:17;15.27;;;8.93;;
25073;SDS011;13066;52.042;5.648;2024-02-04T01:45:47;12.93;;;7.88;;
25073;SDS011;13066;52.042;5.648;2024-02-04T01:48:16;13.57;;;8.27;;
25073;SDS011;13066;52.042;5.648;2024-02-04T01:50:44;17.45;;;8.30;;
25073;SDS011;13066;52.042;5.648;2024-02-04T01:53:15;12.02;;;7.95;;
25073;SDS011;13066;52.042;5.648;2024-02-04T01:55:43;14.02;;;7.75;;
25073;SDS011;13066;52.042;5.648;2024-02-04T01:58:11;15.85;;;8.63;;
25073;SDS011;13066;52.042;5.648;2024-02-04T02:00:39;14.35;;;7.80;;
25073;SDS011;13066;52.042;5.648;2024-02-04T02:03:08;13.13;;;7.32;;
25073;SDS011;13066;52.042;5.648;2024-02-04T02:05:36;13.23;;;7.68;;
25073;SDS011;13066;52.042;5.648;2024-02-04T02:08:05;12.27;;;6.60;;
25073;SDS011;13066;52.042;5.648;2024-02-04T02:10:34;12.18;;;6.70;;
25073;SDS011;13066;52.042;5.648;2024-02-04T02:13:04;9.00;;;5.68;;
25073;SDS011;13066;52.042;5.648;2024-02-04T02:15:36;14.13;;;7.00;;
25073;SDS011;13066;52.042;5.648;2024-02-04T02:18:08;10.60;;;6.82;;
25073;SDS011;13066;52.042;5.648;2024-02-04T02:20:40;9.65;;;6.45;;
25073;SDS011;13066;52.042;5.648;2024-02-04T02:23:12;9.55;;;6.57;;
25073;SDS011;13066;52.042;5.648;2024-02-04T02:25:43;9.43;;;6.95;;
25073;SDS011;13066;52.042;5.648;2024-02-04T02:28:12;10.07;;;6.95;;
25073;SDS011;13066;52.042;5.648;2024-02-04T02:30:40;10.90;;;7.18;;
25073;SDS011;13066;52.042;5.648;2024-02-04T02:33:09;10.07;;;6.88;;
25073;SDS011;13066;52.042;5.648;2024-02-04T02:35:37;13.05;;;7.43;;
25073;SDS011;13066;52.042;5.648;2024-02-04T02:38:05;12.75;;;7.00;;
25073;SDS011;13066;52.042;5.648;2024-02-04T02:40:37;15.57;;;7.90;;
25073;SDS011;13066;52.042;5.648;2024-02-04T02:43:08;11.27;;;7.95;;
25073;SDS011;13066;52.042;5.648;2024-02-04T02:45:39;11.02;;;7.18;;
25073;SDS011;13066;52.042;5.648;2024-02-04T02:48:09;12.27;;;7.55;;
25073;SDS011;13066;52.042;5.648;2024-02-04T02:50:38;11.93;;;7.35;;
25073;SDS011;13066;52.042;5.648;2024-02-04T02:53:06;13.07;;;8.60;;
25073;SDS011;13066;52.042;5.648;2024-02-04T02:55:34;20.50;;;9.63;;
25073;SDS011;13066;52.042;5.648;2024-02-04T02:58:03;16.42;;;8.73;;
25073;SDS011;13066;52.042;5.648;2024-02-04T03:00:32;15.57;;;9.23;;
25073;SDS011;13066;52.042;5.648;2024-02-04T03:03:00;14.02;;;8.35;;
25073;SDS011;13066;52.042;5.648;2024-02-04T03:05:29;15.77;;;8.80;;
25073;SDS011;13066;52.042;5.648;2024-02-04T03:07:58;16.08;;;8.43;;
25073;SDS011;13066;52.042;5.648;2024-02-04T03:10:26;13.48;;;8.25;;
25073;SDS011;13066;52.042;5.648;2024-02-04T03:12:54;12.52;;;8.02;;
25073;SDS011;13066;52.042;5.648;2024-02-04T03:15:22;15.73;;;8.05;;
25073;SDS011;13066;52.042;5.648;2024-02-04T03:17:51;17.88;;;10.25;;
25073;SDS011;13066;52.042;5.648;2024-02-04T03:20:20;17.08;;;10.02;;
25073;SDS011;13066;52.042;5.648;2024-02-04T03:22:48;16.30;;;10.32;;
25073;SDS011;13066;52.042;5.648;2024-02-04T03:25:17;19.27;;;10.50;;
25073;SDS011;13066;52.042;5.648;2024-02-04T03:27:45;19.02;;;11.00;;
25073;SDS011;13066;52.042;5.648;2024-02-04T03:30:13;15.85;;;10.45;;
25073;SDS011;13066;52.042;5.648;2024-02-04T03:32:42;16.73;;;10.57;;
25073;SDS011;13066;52.042;5.648;2024-02-04T03:35:11;16.50;;;10.98;;
25073;SDS011;13066;52.042;5.648;2024-02-04T03:37:39;15.43;;;9.45;;
25073;SDS011;13066;52.042;5.648;2024-02-04T03:40:07;16.77;;;9.00;;
25073;SDS011;13066;52.042;5.648;2024-02-04T03:42:36;13.55;;;8.63;;
25073;SDS011;13066;52.042;5.648;2024-02-04T03:45:05;15.73;;;8.60;;
25073;SDS011;13066;52.042;5.648;2024-02-04T03:47:33;12.48;;;7.90;;
25073;SDS011;13066;52.042;5.648;2024-02-04T03:50:02;13.80;;;7.95;;
25073;SDS011;13066;52.042;5.648;2024-02-04T03:52:32;14.98;;;7.40;;
25073;SDS011;13066;52.042;5.648;2024-02-04T03:55:00;16.90;;;7.35;;
25073;SDS011;13066;52.042;5.648;2024-02-04T03:57:29;13.27;;;6.97;;
25073;SDS011;13066;52.042;5.648;2024-02-04T03:59:57;16.45;;;6.65;;
25073;SDS011;13066;52.042;5.648;2024-02-04T04:02:25;13.25;;;7.47;;
25073;SDS011;13066;52.042;5.648;2024-02-04T04:04:53;12.52;;;6.95;;
25073;SDS011;13066;52.042;5.648;2024-02-04T04:07:22;11.63;;;6.60;;
25073;SDS011;13066;52.042;5.648;2024-02-04T04:09:53;11.32;;;6.47;;
25073;SDS011;13066;52.042;5.648;2024-02-04T04:12:21;9.45;;;5.85;;
25073;SDS011;13066;52.042;5.648;2024-02-04T04:14:49;12.40;;;6.20;;
25073;SDS011;13066;52.042;5.648;2024-02-04T04:17:17;11.57;;;6.18;;
25073;SDS011;13066;52.042;5.648;2024-02-04T04:19:45;12.35;;;6.45;;
25073;SDS011;13066;52.042;5.648;2024-02-04T04:22:13;10.00;;;6.20;;
25073;SDS011;13066;52.042;5.648;2024-02-04T04:24:43;18.58;;;7.07;;
25073;SDS011;13066;52.042;5.648;2024-02-04T04:27:12;11.73;;;6.70;;
25073;SDS011;13066;52.042;5.648;2024-02-04T04:29:40;10.77;;;6.85;;
25073;SDS011;13066;52.042;5.648;2024-02-04T04:32:08;12.93;;;7.60;;
25073;SDS011;13066;52.042;5.648;2024-02-04T04:34:36;17.50;;;8.07;;
25073;SDS011;13066;52.042;5.648;2024-02-04T04:37:04;17.20;;;7.80;;
25073;SDS011;13066;52.042;5.648;2024-02-04T04:39:32;13.05;;;7.15;;
25073;SDS011;13066;52.042;5.648;2024-02-04T04:42:00;15.68;;;7.50;;
25073;SDS011;13066;52.042;5.648;2024-02-04T04:44:29;13.75;;;7.30;;
25073;SDS011;13066;52.042;5.648;2024-02-04T04:46:58;15.00;;;6.93;;
25073;SDS011;13066;52.042;5.648;2024-02-04T04:49:26;13.80;;;6.28;;
25073;SDS011;13066;52.042;5.648;2024-02-04T04:51:54;14.20;;;6.30;;
25073;SDS011;13066;52.042;5.648;2024-02-04T04:54:22;14.07;;;6.07;;
25073;SDS011;13066;52.042;5.648;2024-02-04T04:56:50;10.38;;;5.47;;
25073;SDS011;13066;52.042;5.648;2024-02-04T04:59:18;11.48;;;5.93;;
25073;SDS011;13066;52.042;5.648;2024-02-04T05:01:47;13.77;;;6.28;;
25073;SDS011;13066;52.042;5.648;2024-02-04T05:04:16;9.40;;;4.85;;
25073;SDS011;13066;52.042;5.648;2024-02-04T05:06:45;11.55;;;5.18;;
25073;SDS011;13066;52.042;5.648;2024-02-04T05:09:13;11.73;;;5.22;;
25073;SDS011;13066;52.042;5.648;2024-02-04T05:11:42;11.75;;;5.05;;
25073;SDS011;13066;52.042;5.648;2024-02-04T05:14:10;10.73;;;5.50;;
25073;SDS011;13066;52.042;5.648;2024-02-04T05:16:38;10.85;;;5.20;;
25073;SDS011;13066;52.042;5.648;2024-02-04T05:19:07;11.43;;;5.28;;
25073;SDS011;13066;52.042;5.648;2024-02-04T05:21:37;7.93;;;4.90;;
25073;SDS011;13066;52.042;5.648;2024-02-04T05:24:05;9.07;;;4.90;;
25073;SDS011;13066;52.042;5.648;2024-02-04T05:26:33;10.50;;;5.13;;
25073;SDS011;13066;52.042;5.648;2024-02-04T05:29:02;11.82;;;5.53;;
25073;SDS011;13066;52.042;5.648;2024-02-04T05:31:30;12.50;;;5.50;;
25073;SDS011;13066;52.042;5.648;2024-02-04T05:33:58;12.23;;;5.93;;
25073;SDS011;13066;52.042;5.648;2024-02-04T05:36:27;10.57;;;5.55;;
25073;SDS011;13066;52.042;5.648;2024-02-04T05:38:55;10.20;;;5.82;;
25073;SDS011;13066;52.042;5.648;2024-02-04T05:41:23;10.35;;;5.55;;
25073;SDS011;13066;52.042;5.648;2024-02-04T05:43:51;11.00;;;6.20;;
25073;SDS011;13066;52.042;5.648;2024-02-04T05:46:20;13.07;;;6.60;;
25073;SDS011;13066;52.042;5.648;2024-02-04T05:48:48;12.85;;;6.40;;
25073;SDS011;13066;52.042;5.648;2024-02-04T05:51:16;10.95;;;6.57;;
25073;SDS011;13066;52.042;5.648;2024-02-04T05:53:45;10.10;;;7.13;;
25073;SDS011;13066;52.042;5.648;2024-02-04T05:56:13;13.65;;;7.15;;
25073;SDS011;13066;52.042;5.648;2024-02-04T05:58:41;15.70;;;7.63;;
25073;SDS011;13066;52.042;5.648;2024-02-04T06:01:10;15.65;;;7.82;;
25073;SDS011;13066;52.042;5.648;2024-02-04T06:03:38;14.32;;;7.47;;
25073;SDS011;13066;52.042;5.648;2024-02-04T06:06:06;13.98;;;7.30;;
25073;SDS011;13066;52.042;5.648;2024-02-04T06:08:33;15.32;;;7.38;;
25073;SDS011;13066;52.042;5.648;2024-02-04T06:11:02;14.80;;;6.72;;
25073;SDS011;13066;52.042;5.648;2024-02-04T06:13:31;10.77;;;6.70;;
25073;SDS011;13066;52.042;5.648;2024-02-04T06:15:59;12.45;;;6.93;;
25073;SDS011;13066;52.042;5.648;2024-02-04T06:18:28;13.07;;;7.15;;
25073;SDS011;13066;52.042;5.648;2024-02-04T06:20:56;12.90;;;6.97;;
25073;SDS011;13066;52.042;5.648;2024-02-04T06:23:24;11.95;;;6.70;;
25073;SDS011;13066;52.042;5.648;2024-02-04T06:25:52;13.60;;;7.53;;
25073;SDS011;13066;52.042;5.648;2024-02-04T06:28:21;13.82;;;7.32;;
25073;SDS011;13066;52.042;5.648;2024-02-04T06:30:49;10.82;;;7.07;;
25073;SDS011;13066;52.042;5.648;2024-02-04T06:33:17;13.95;;;7.47;;
25073;SDS011;13066;52.042;5.648;2024-02-04T06:35:46;13.13;;;7.70;;
25073;SDS011;13066;52.042;5.648;2024-02-04T06:38:14;13.50;;;7.43;;
25073;SDS011;13066;52.042;5.648;2024-02-04T06:40:42;12.80;;;7.72;;
25073;SDS011;13066;52.042;5.648;2024-02-04T06:43:10;11.85;;;8.10;;
25073;SDS011;13066;52.042;5.648;2024-02-04T06:45:39;13.02;;;8.82;;
25073;SDS011;13066;52.042;5.648;2024-02-04T06:48:08;13.95;;;8.60;;
25073;SDS011;13066;52.042;5.648;2024-02-04T06:50:36;13.85;;;9.23;;
25073;SDS011;13066;52.042;5.648;2024-02-04T06:53:04;13.98;;;9.27;;
25073;SDS011;13066;52.042;5.648;2024-02-04T06:55:33;12.60;;;9.77;;
25073;SDS011;13066;52.042;5.648;2024-02-04T06:58:01;14.65;;;10.50;;
25073;SDS011;13066;52.042;5.648;2024-02-04T07:00:29;13.93;;;11.60;;
25073;SDS011;13066;52.042;5.648;2024-02-04T07:02:59;17.13;;;11.75;;
25073;SDS011;13066;52.042;5.648;2024-02-04T07:05:27;13.75;;;12.20;;
25073;SDS011;13066;52.042;5.648;2024-02-04T07:07:56;18.05;;;13.10;;
25073;SDS011;13066;52.042;5.648;2024-02-04T07:10:24;18.95;;;12.88;;
25073;SDS011;13066;52.042;5.648;2024-02-04T07:12:52;15.98;;;13.68;;
25073;SDS011;13066;52.042;5.648;2024-02-04T07:15:20;16.95;;;13.32;;
25073;SDS011;13066;52.042;5.648;2024-02-04T07:17:48;17.02;;;12.93;;
25073;SDS011;13066;52.042;5.648;2024-02-04T07:20:18;16.80;;;12.77;;
25073;SDS011;13066;52.042;5.648;2024-02-04T07:22:46;16.35;;;12.25;;
25073;SDS011;13066;52.042;5.648;2024-02-04T07:25:14;18.42;;;11.75;;
25073;SDS011;13066;52.042;5.648;2024-02-04T07:27:42;14.77;;;11.25;;
25073;SDS011;13066;52.042;5.648;2024-02-04T07:30:11;18.17;;;10.48;;
25073;SDS011;13066;52.042;5.648;2024-02-04T07:32:39;14.80;;;10.02;;
25073;SDS011;13066;52.042;5.648;2024-02-04T07:35:08;16.33;;;9.35;;
25073;SDS011;13066;52.042;5.648;2024-02-04T07:37:37;16.70;;;10.85;;
25073;SDS011;13066;52.042;5.648;2024-02-04T07:40:06;16.88;;;9.80;;
25073;SDS011;13066;52.042;5.648;2024-02-04T07:42:35;18.88;;;9.45;;
25073;SDS011;13066;52.042;5.648;2024-02-04T07:45:03;15.82;;;9.85;;
25073;SDS011;13066;52.042;5.648;2024-02-04T07:47:35;15.85;;;9.38;;
25073;SDS011;13066;52.042;5.648;2024-02-04T07:50:04;14.90;;;8.50;;
25073;SDS011;13066;52.042;5.648;2024-02-04T07:52:33;15.13;;;9.43;;
25073;SDS011;13066;52.042;5.648;2024-02-04T07:55:02;13.57;;;8.23;;
25073;SDS011;13066;52.042;5.648;2024-02-04T07:57:32;18.48;;;9.10;;
25073;SDS011;13066;52.042;5.648;2024-02-04T08:00:00;17.52;;;8.02;;
25073;SDS011;13066;52.042;5.648;2024-02-04T08:02:37;14.50;;;7.63;;
25073;SDS011;13066;52.042;5.648;2024-02-04T08:05:05;16.00;;;7.40;;
25073;SDS011;13066;52.042;5.648;2024-02-04T08:07:37;16.17;;;7.40;;
25073;SDS011;13066;52.042;5.648;2024-02-04T08:10:07;11.02;;;6.50;;
25073;SDS011;13066;52.042;5.648;2024-02-04T08:12:36;12.13;;;6.05;;
25073;SDS011;13066;52.042;5.648;2024-02-04T08:15:05;11.07;;;5.88;;
25073;SDS011;13066;52.042;5.648;2024-02-04T08:17:33;12.63;;;5.90;;
25073;SDS011;13066;52.042;5.648;2024-02-04T08:20:02;12.98;;;5.85;;
25073;SDS011;13066;52.042;5.648;2024-02-04T08:22:31;10.13;;;5.43;;
25073;SDS011;13066;52.042;5.648;2024-02-04T08:25:00;12.55;;;5.85;;
25073;SDS011;13066;52.042;5.648;2024-02-04T08:27:31;10.80;;;5.85;;
25073;SDS011;13066;52.042;5.648;2024-02-04T08:29:59;13.75;;;6.15;;
25073;SDS011;13066;52.042;5.648;2024-02-04T08:32:27;12.23;;;5.45;;
25073;SDS011;13066;52.042;5.648;2024-02-04T08:34:55;10.70;;;6.00;;
25073;SDS011;13066;52.042;5.648;2024-02-04T08:37:23;12.68;;;5.95;;
25073;SDS011;13066;52.042;5.648;2024-02-04T08:39:54;13.57;;;5.80;;
25073;SDS011;13066;52.042;5.648;2024-02-04T08:42:22;13.82;;;6.22;;
25073;SDS011;13066;52.042;5.648;2024-02-04T08:44:52;10.07;;;5.85;;
25073;SDS011;13066;52.042;5.648;2024-02-04T08:47:20;12.88;;;5.40;;
25073;SDS011;13066;52.042;5.648;2024-02-04T08:49:48;10.88;;;5.25;;
25073;SDS011;13066;52.042;5.648;2024-02-04T08:52:16;10.20;;;5.35;;
25073;SDS011;13066;52.042;5.648;2024-02-04T08:54:45;11.23;;;5.38;;
25073;SDS011;13066;52.042;5.648;2024-02-04T08:57:13;15.25;;;4.90;;
25073;SDS011;13066;52.042;5.648;2024-02-04T08:59:43;10.93;;;5.18;;
25073;SDS011;13066;52.042;5.648;2024-02-04T09:02:12;11.93;;;5.30;;
25073;SDS011;13066;52.042;5.648;2024-02-04T09:04:41;8.38;;;4.45;;
25073;SDS011;13066;52.042;5.648;2024-02-04T09:07:09;10.82;;;5.03;;
25073;SDS011;13066;52.042;5.648;2024-02-04T09:09:37;8.48;;;5.18;;
25073;SDS011;13066;52.042;5.648;2024-02-04T09:12:07;10.55;;;5.25;;
25073;SDS011;13066;52.042;5.648;2024-02-04T09:14:35;11.02;;;5.57;;
25073;SDS011;13066;52.042;5.648;2024-02-04T09:17:04;10.27;;;5.72;;
25073;SDS011;13066;52.042;5.648;2024-02-04T09:19:34;10.07;;;5.70;;
25073;SDS011;13066;52.042;5.648;2024-02-04T09:22:08;11.40;;;5.80;;
25073;SDS011;13066;52.042;5.648;2024-02-04T09:24:37;11.52;;;5.93;;
25073;SDS011;13066;52.042;5.648;2024-02-04T09:27:05;12.20;;;6.18;;
25073;SDS011;13066;52.042;5.648;2024-02-04T09:29:33;10.43;;;5.97;;
25073;SDS011;13066;52.042;5.648;2024-02-04T09:32:01;13.65;;;6.00;;
25073;SDS011;13066;52.042;5.648;2024-02-04T09:34:30;13.00;;;5.97;;
25073;SDS011;13066;52.042;5.648;2024-02-04T09:37:00;10.25;;;5.57;;
25073;SDS011;13066;52.042;5.648;2024-02-04T09:39:29;10.02;;;4.50;;
25073;SDS011;13066;52.042;5.648;2024-02-04T09:41:57;7.95;;;4.80;;
25073;SDS011;13066;52.042;5.648;2024-02-04T09:44:26;13.10;;;4.53;;
25073;SDS011;13066;52.042;5.648;2024-02-04T09:46:54;9.38;;;4.78;;
25073;SDS011;13066;52.042;5.648;2024-02-04T09:49:25;10.38;;;4.22;;
25073;SDS011;13066;52.042;5.648;2024-02-04T09:51:55;8.27;;;3.90;;
25073;SDS011;13066;52.042;5.648;2024-02-04T09:54:25;8.98;;;4.00;;
25073;SDS011;13066;52.042;5.648;2024-02-04T09:56:55;7.35;;;3.53;;
25073;SDS011;13066;52.042;5.648;2024-02-04T09:59:23;6.45;;;3.60;;
25073;SDS011;13066;52.042;5.648;2024-02-04T10:01:51;9.07;;;3.95;;
25073;SDS011;13066;52.042;5.648;2024-02-04T10:04:20;8.65;;;3.38;;
25073;SDS011;13066;52.042;5.648;2024-02-04T10:06:49;9.82;;;3.50;;
25073;SDS011;13066;52.042;5.648;2024-02-04T10:09:17;8.40;;;4.00;;
25073;SDS011;13066;52.042;5.648;2024-02-04T10:11:46;6.15;;;2.97;;
25073;SDS011;13066;52.042;5.648;2024-02-04T10:14:15;5.68;;;3.22;;
25073;SDS011;13066;52.042;5.648;2024-02-04T10:16:45;9.55;;;3.42;;
25073;SDS011;13066;52.042;5.648;2024-02-04T10:19:13;7.55;;;3.33;;
25073;SDS011;13066;52.042;5.648;2024-02-04T10:21:41;6.95;;;3.30;;
25073;SDS011;13066;52.042;5.648;2024-02-04T10:24:09;9.40;;;3.20;;
25073;SDS011;13066;52.042;5.648;2024-02-04T10:26:37;5.90;;;3.00;;
25073;SDS011;13066;52.042;5.648;2024-02-04T10:29:08;8.63;;;3.05;;
25073;SDS011;13066;52.042;5.648;2024-02-04T10:31:36;5.78;;;2.78;;
25073;SDS011;13066;52.042;5.648;2024-02-04T10:34:05;8.20;;;3.30;;
25073;SDS011;13066;52.042;5.648;2024-02-04T10:36:34;7.53;;;3.35;;
25073;SDS011;13066;52.042;5.648;2024-02-04T10:39:03;7.10;;;3.00;;
25073;SDS011;13066;52.042;5.648;2024-02-04T10:41:33;8.40;;;2.92;;
25073;SDS011;13066;52.042;5.648;2024-02-04T10:44:02;7.88;;;2.70;;
25073;SDS011;13066;52.042;5.648;2024-02-04T10:46:34;5.25;;;2.60;;
25073;SDS011;13066;52.042;5.648;2024-02-04T10:49:03;5.15;;;2.50;;
25073;SDS011;13066;52.042;5.648;2024-02-04T10:51:35;5.90;;;2.45;;
25073;SDS011;13066;52.042;5.648;2024-02-04T10:54:04;7.22;;;2.60;;
25073;SDS011;13066;52.042;5.648;2024-02-04T10:56:35;6.55;;;2.30;;
25073;SDS011;13066;52.042;5.648;2024-02-04T10:59:05;6.60;;;2.58;;
25073;SDS011;13066;52.042;5.648;2024-02-04T11:01:35;5.78;;;2.70;;
25073;SDS011;13066;52.042;5.648;2024-02-04T11:04:04;8.68;;;3.15;;
25073;SDS011;13066;52.042;5.648;2024-02-04T11:06:33;7.40;;;3.80;;
25073;SDS011;13066;52.042;5.648;2024-02-04T11:09:01;7.72;;;3.30;;
25073;SDS011;13066;52.042;5.648;2024-02-04T11:11:29;7.00;;;2.40;;
25073;SDS011;13066;52.042;5.648;2024-02-04T11:13:59;6.35;;;2.17;;
25073;SDS011;13066;52.042;5.648;2024-02-04T11:16:40;3.33;;;1.80;;
25073;SDS011;13066;52.042;5.648;2024-02-04T11:19:20;2.90;;;1.42;;
25073;SDS011;13066;52.042;5.648;2024-02-04T11:24:53;2.35;;;1.20;;
25073;SDS011;13066;52.042;5.648;2024-02-04T11:27:26;3.42;;;1.20;;
25073;SDS011;13066;52.042;5.648;2024-02-04T11:29:55;2.47;;;1.33;;
25073;SDS011;13066;52.042;5.648;2024-02-04T11:32:25;1.80;;;1.00;;
25073;SDS011;13066;52.042;5.648;2024-02-04T11:34:53;1.45;;;1.05;;
25073;SDS011;13066;52.042;5.648;2024-02-04T11:37:27;2.60;;;1.30;;
25073;SDS011;13066;52.042;5.648;2024-02-04T11:39:57;2.08;;;1.40;;
25073;SDS011;13066;52.042;5.648;2024-02-04T11:42:25;2.10;;;1.90;;
25073;SDS011;13066;52.042;5.648;2024-02-04T11:45:06;2.05;;;1.85;;
25073;SDS011;13066;52.042;5.648;2024-02-04T11:47:36;2.83;;;1.60;;
25073;SDS011;13066;52.042;5.648;2024-02-04T11:50:05;2.20;;;1.63;;
25073;SDS011;13066;52.042;5.648;2024-02-04T11:52:36;1.42;;;1.33;;
25073;SDS011;13066;52.042;5.648;2024-02-04T11:55:05;53.63;;;21.92;;
25073;SDS011;13066;52.042;5.648;2024-02-04T11:57:34;13.65;;;5.22;;
25073;SDS011;13066;52.042;5.648;2024-02-04T12:00:04;5.00;;;2.80;;
25073;SDS011;13066;52.042;5.648;2024-02-04T12:02:38;3.88;;;2.22;;
25073;SDS011;13066;52.042;5.648;2024-02-04T12:05:07;4.82;;;2.45;;
25073;SDS011;13066;52.042;5.648;2024-02-04T12:07:35;17.73;;;7.07;;
25073;SDS011;13066;52.042;5.648;2024-02-04T12:10:09;7.00;;;3.65;;
25073;SDS011;13066;52.042;5.648;2024-02-04T12:12:38;7.13;;;3.05;;
25073;SDS011;13066;52.042;5.648;2024-02-04T12:15:06;8.90;;;3.25;;
25073;SDS011;13066;52.042;5.648;2024-02-04T12:17:34;11.90;;;3.63;;
25073;SDS011;13066;52.042;5.648;2024-02-04T12:20:04;9.60;;;3.85;;
25073;SDS011;13066;52.042;5.648;2024-02-04T12:22:33;10.73;;;4.43;;
25073;SDS011;13066;52.042;5.648;2024-02-04T12:25:01;7.15;;;4.07;;
25073;SDS011;13066;52.042;5.648;2024-02-04T12:27:30;9.05;;;3.70;;
25073;SDS011;13066;52.042;5.648;2024-02-04T12:29:58;12.18;;;3.70;;
25073;SDS011;13066;52.042;5.648;2024-02-04T12:32:27;9.25;;;3.90;;
25073;SDS011;13066;52.042;5.648;2024-02-04T12:34:55;11.93;;;3.65;;
25073;SDS011;13066;52.042;5.648;2024-02-04T12:37:25;9.50;;;3.60;;
25073;SDS011;13066;52.042;5.648;2024-02-04T12:39:53;8.95;;;3.65;;
25073;SDS011;13066;52.042;5.648;2024-02-04T12:42:22;11.32;;;4.25;;
25073;SDS011;13066;52.042;5.648;2024-02-04T12:44:50;11.18;;;3.85;;
25073;SDS011;13066;52.042;5.648;2024-02-04T12:47:18;9.38;;;3.72;;
25073;SDS011;13066;52.042;5.648;2024-02-04T12:49:46;8.15;;;3.88;;
25073;SDS011;13066;52.042;5.648;2024-02-04T12:52:19;10.30;;;3.75;;
25073;SDS011;13066;52.042;5.648;2024-02-04T12:54:49;10.77;;;4.23;;
25073;SDS011;13066;52.042;5.648;2024-02-04T12:57:22;9.68;;;3.50;;
25073;SDS011;13066;52.042;5.648;2024-02-04T12:59:51;8.05;;;3.25;;
25073;SDS011;13066;52.042;5.648;2024-02-04T13:02:19;10.82;;;3.80;;
25073;SDS011;13066;52.042;5.648;2024-02-04T13:04:48;8.00;;;3.13;;
25073;SDS011;13066;52.042;5.648;2024-02-04T13:07:16;9.68;;;3.88;;
25073;SDS011;13066;52.042;5.648;2024-02-04T13:09:46;9.18;;;3.40;;
25073;SDS011;13066;52.042;5.648;2024-02-04T13:12:26;8.98;;;3.60;;
25073;SDS011;13066;52.042;5.648;2024-02-04T13:14:54;9.65;;;3.50;;
25073;SDS011;13066;52.042;5.648;2024-02-04T13:17:22;9.18;;;3.58;;
25073;SDS011;13066;52.042;5.648;2024-02-04T13:19:50;7.80;;;3.03;;
25073;SDS011;13066;52.042;5.648;2024-02-04T13:22:18;10.30;;;3.40;;
25073;SDS011;13066;52.042;5.648;2024-02-04T13:24:46;9.57;;;3.42;;
25073;SDS011;13066;52.042;5.648;2024-02-04T13:27:14;10.35;;;3.40;;
25073;SDS011;13066;52.042;5.648;2024-02-04T13:29:45;9.35;;;3.25;;
25073;SDS011;13066;52.042;5.648;2024-02-04T13:32:14;10.50;;;4.40;;
25073;SDS011;13066;52.042;5.648;2024-02-04T13:34:42;9.45;;;4.85;;
25073;SDS011;13066;52.042;5.648;2024-02-04T13:37:10;7.07;;;3.75;;
25073;SDS011;13066;52.042;5.648;2024-02-04T13:39:39;8.70;;;3.72;;
25073;SDS011;13066;52.042;5.648;2024-02-04T13:42:07;8.68;;;3.30;;
25073;SDS011;13066;52.042;5.648;2024-02-04T13:44:35;9.27;;;3.33;;
25073;SDS011;13066;52.042;5.648;2024-02-04T13:47:04;9.75;;;3.35;;
25073;SDS011;13066;52.042;5.648;2024-02-04T13:49:33;10.10;;;3.00;;
25073;SDS011;13066;52.042;5.648;2024-02-04T13:52:01;7.15;;;3.22;;
25073;SDS011;13066;52.042;5.648;2024-02-04T13:54:30;8.45;;;3.30;;
25073;SDS011;13066;52.042;5.648;2024-02-04T13:56:58;9.95;;;3.45;;
25073;SDS011;13066;52.042;5.648;2024-02-04T13:59:26;8.65;;;2.92;;
25073;SDS011;13066;52.042;5.648;2024-02-04T14:01:54;9.38;;;2.92;;
25073;SDS011;13066;52.042;5.648;2024-02-04T14:04:29;9.48;;;3.25;;
25073;SDS011;13066;52.042;5.648;2024-02-04T14:06:57;7.70;;;3.38;;
25073;SDS011;13066;52.042;5.648;2024-02-04T14:09:26;7.95;;;2.85;;
25073;SDS011;13066;52.042;5.648;2024-02-04T14:11:54;7.80;;;3.10;;
25073;SDS011;13066;52.042;5.648;2024-02-04T14:14:23;10.15;;;3.22;;
25073;SDS011;13066;52.042;5.648;2024-02-04T14:16:51;6.72;;;2.92;;
25073;SDS011;13066;52.042;5.648;2024-02-04T14:19:20;9.45;;;3.20;;
25073;SDS011;13066;52.042;5.648;2024-02-04T14:21:50;9.82;;;2.83;;
25073;SDS011;13066;52.042;5.648;2024-02-04T14:24:18;9.13;;;3.20;;
25073;SDS011;13066;52.042;5.648;2024-02-04T14:26:46;9.30;;;3.17;;
25073;SDS011;13066;52.042;5.648;2024-02-04T14:29:14;11.05;;;3.10;;
25073;SDS011;13066;52.042;5.648;2024-02-04T14:31:44;12.63;;;3.10;;
25073;SDS011;13066;52.042;5.648;2024-02-04T14:34:12;8.80;;;3.28;;
25073;SDS011;13066;52.042;5.648;2024-02-04T14:36:41;9.57;;;3.70;;
25073;SDS011;13066;52.042;5.648;2024-02-04T14:39:11;13.55;;;3.75;;
25073;SDS011;13066;52.042;5.648;2024-02-04T14:41:39;10.57;;;3.38;;
25073;SDS011;13066;52.042;5.648;2024-02-04T14:44:07;10.75;;;3.78;;
25073;SDS011;13066;52.042;5.648;2024-02-04T14:46:37;10.18;;;3.40;;
25073;SDS011;13066;52.042;5.648;2024-02-04T14:49:06;9.93;;;3.50;;
25073;SDS011;13066;52.042;5.648;2024-02-04T14:51:37;13.48;;;4.72;;